Mattice, Canada
Current Conditions -  °F | °C
As of 12:00 PM on Monday 22 Dec 2014 (Local Time) from CYYU Reporting Station
Light Snow Light Snow  
Wind Chill: 20°   Ceiling: 900
Heat Index: 30°   Visibility: 2mi
Dew Point: 28°   Wind: 14mph
Humidity: 93%   Direction: 180°S
Pressure: 30.02"   Gusts: NA
Location:  49.61°N, 83.26°W
Report Text: CYYU 221700Z 18012KT 2SM -SN BKN009 OVC100 M01/M02 A3002 RMK SC5AC3 VIS VRB 1 1/2 - 2 1/2 SLP179
Loading
Personal Weather Stations






























Interactive Weather Map New forecast layout! Learn more

10-Day Weather Forecast

Advertisements
Track Severe Weather on mobile